sensor_id;sensor_type;location;lat;lon;timestamp;temperature;humidity
43087;DHT22;28708;52.224;6.924;2023-06-22T00:00:53;20.50;99.90
43087;DHT22;28708;52.224;6.924;2023-06-22T00:03:19;20.50;99.90
43087;DHT22;28708;52.224;6.924;2023-06-22T00:05:48;20.50;99.90
43087;DHT22;28708;52.224;6.924;2023-06-22T00:08:14;20.40;99.90
43087;DHT22;28708;52.224;6.924;2023-06-22T00:10:40;20.40;99.90
43087;DHT22;28708;52.224;6.924;2023-06-22T00:13:07;20.40;99.90
43087;DHT22;28708;52.224;6.924;2023-06-22T00:15:33;20.40;99.90
43087;DHT22;28708;52.224;6.924;2023-06-22T00:17:59;20.50;99.90
43087;DHT22;28708;52.224;6.924;2023-06-22T00:20:26;20.40;99.90
43087;DHT22;28708;52.224;6.924;2023-06-22T00:22:56;20.30;99.90
43087;DHT22;28708;52.224;6.924;2023-06-22T00:25:22;20.40;99.90
43087;DHT22;28708;52.224;6.924;2023-06-22T00:27:48;20.40;99.90
43087;DHT22;28708;52.224;6.924;2023-06-22T00:30:15;20.30;99.90
43087;DHT22;28708;52.224;6.924;2023-06-22T00:32:41;20.20;99.90
43087;DHT22;28708;52.224;6.924;2023-06-22T00:35:07;20.20;99.90
43087;DHT22;28708;52.224;6.924;2023-06-22T00:37:34;20.20;99.90
43087;DHT22;28708;52.224;6.924;2023-06-22T00:40:01;20.20;99.90
43087;DHT22;28708;52.224;6.924;2023-06-22T00:42:27;20.20;99.90
43087;DHT22;28708;52.224;6.924;2023-06-22T00:44:53;20.10;99.90
43087;DHT22;28708;52.224;6.924;2023-06-22T00:47:18;20.10;99.90
43087;DHT22;28708;52.224;6.924;2023-06-22T00:49:45;20.10;99.90
43087;DHT22;28708;52.224;6.924;2023-06-22T00:52:12;20.00;99.90
43087;DHT22;28708;52.224;6.924;2023-06-22T00:54:49;20.00;99.90
43087;DHT22;28708;52.224;6.924;2023-06-22T00:57:16;20.00;99.90
43087;DHT22;28708;52.224;6.924;2023-06-22T00:59:44;20.00;99.90
43087;DHT22;28708;52.224;6.924;2023-06-22T01:02:10;20.00;99.90
43087;DHT22;28708;52.224;6.924;2023-06-22T01:04:37;20.00;99.90
43087;DHT22;28708;52.224;6.924;2023-06-22T01:07:10;19.90;99.90
43087;DHT22;28708;52.224;6.924;2023-06-22T01:09:53;19.90;99.90
43087;DHT22;28708;52.224;6.924;2023-06-22T01:12:23;19.80;99.90
43087;DHT22;28708;52.224;6.924;2023-06-22T01:14:58;19.80;99.90
43087;DHT22;28708;52.224;6.924;2023-06-22T01:17:26;19.80;99.90
43087;DHT22;28708;52.224;6.924;2023-06-22T01:19:55;19.80;99.90
43087;DHT22;28708;52.224;6.924;2023-06-22T01:22:27;19.70;99.90
43087;DHT22;28708;52.224;6.924;2023-06-22T01:27:47;19.60;99.90
43087;DHT22;28708;52.224;6.924;2023-06-22T01:30:16;19.60;99.90
43087;DHT22;28708;52.224;6.924;2023-06-22T01:32:44;19.50;99.90
43087;DHT22;28708;52.224;6.924;2023-06-22T01:35:10;19.50;99.90
43087;DHT22;28708;52.224;6.924;2023-06-22T01:37:38;19.60;99.90
43087;DHT22;28708;52.224;6.924;2023-06-22T01:40:05;19.60;99.90
43087;DHT22;28708;52.224;6.924;2023-06-22T01:42:32;19.50;99.90
43087;DHT22;28708;52.224;6.924;2023-06-22T01:44:59;19.50;99.90
43087;DHT22;28708;52.224;6.924;2023-06-22T01:47:25;19.50;99.90
43087;DHT22;28708;52.224;6.924;2023-06-22T01:49:53;19.50;99.90
43087;DHT22;28708;52.224;6.924;2023-06-22T01:52:20;19.40;99.90
43087;DHT22;28708;52.224;6.924;2023-06-22T01:54:46;19.50;99.90
43087;DHT22;28708;52.224;6.924;2023-06-22T01:57:12;19.50;99.90
43087;DHT22;28708;52.224;6.924;2023-06-22T02:02:20;19.40;99.90
43087;DHT22;28708;52.224;6.924;2023-06-22T02:05:09;19.40;99.90
43087;DHT22;28708;52.224;6.924;2023-06-22T02:08:07;19.50;99.90
43087;DHT22;28708;52.224;6.924;2023-06-22T02:10:36;19.50;99.90
43087;DHT22;28708;52.224;6.924;2023-06-22T02:13:06;19.40;99.90
43087;DHT22;28708;52.224;6.924;2023-06-22T02:15:32;19.40;99.90
43087;DHT22;28708;52.224;6.924;2023-06-22T02:17:58;19.40;99.90
43087;DHT22;28708;52.224;6.924;2023-06-22T02:20:24;19.40;99.90
43087;DHT22;28708;52.224;6.924;2023-06-22T02:22:50;19.50;99.90
43087;DHT22;28708;52.224;6.924;2023-06-22T02:25:16;19.40;99.90
43087;DHT22;28708;52.224;6.924;2023-06-22T02:27:43;19.40;99.90
43087;DHT22;28708;52.224;6.924;2023-06-22T02:30:10;19.40;99.90
43087;DHT22;28708;52.224;6.924;2023-06-22T02:32:38;19.30;99.90
43087;DHT22;28708;52.224;6.924;2023-06-22T02:35:07;19.40;99.90
43087;DHT22;28708;52.224;6.924;2023-06-22T02:37:35;19.30;99.90
43087;DHT22;28708;52.224;6.924;2023-06-22T02:40:01;19.30;99.90
43087;DHT22;28708;52.224;6.924;2023-06-22T02:42:29;19.30;99.90
43087;DHT22;28708;52.224;6.924;2023-06-22T02:44:55;19.30;99.90
43087;DHT22;28708;52.224;6.924;2023-06-22T02:47:20;19.20;99.90
43087;DHT22;28708;52.224;6.924;2023-06-22T02:49:46;19.30;99.90
43087;DHT22;28708;52.224;6.924;2023-06-22T02:52:12;19.20;99.90
43087;DHT22;28708;52.224;6.924;2023-06-22T02:54:38;19.20;99.90
43087;DHT22;28708;52.224;6.924;2023-06-22T02:57:04;19.20;99.90
43087;DHT22;28708;52.224;6.924;2023-06-22T02:59:31;19.20;99.90
43087;DHT22;28708;52.224;6.924;2023-06-22T03:02:03;19.20;99.90
43087;DHT22;28708;52.224;6.924;2023-06-22T03:04:31;19.10;99.90
43087;DHT22;28708;52.224;6.924;2023-06-22T03:06:57;19.10;99.90
43087;DHT22;28708;52.224;6.924;2023-06-22T03:09:28;19.10;99.90
43087;DHT22;28708;52.224;6.924;2023-06-22T03:11:54;19.10;99.90
43087;DHT22;28708;52.224;6.924;2023-06-22T03:14:22;19.10;99.90
43087;DHT22;28708;52.224;6.924;2023-06-22T03:16:47;19.10;99.90
43087;DHT22;28708;52.224;6.924;2023-06-22T03:19:13;19.10;99.90
43087;DHT22;28708;52.224;6.924;2023-06-22T03:21:40;19.10;99.90
43087;DHT22;28708;52.224;6.924;2023-06-22T03:24:09;19.10;99.90
43087;DHT22;28708;52.224;6.924;2023-06-22T03:26:34;19.10;99.90
43087;DHT22;28708;52.224;6.924;2023-06-22T03:29:00;19.10;99.90
43087;DHT22;28708;52.224;6.924;2023-06-22T03:31:27;19.10;99.90
43087;DHT22;28708;52.224;6.924;2023-06-22T03:33:53;19.10;99.90
43087;DHT22;28708;52.224;6.924;2023-06-22T03:36:19;19.00;99.90
43087;DHT22;28708;52.224;6.924;2023-06-22T03:38:46;19.00;99.90
43087;DHT22;28708;52.224;6.924;2023-06-22T03:41:12;19.10;99.90
43087;DHT22;28708;52.224;6.924;2023-06-22T03:43:38;19.00;99.90
43087;DHT22;28708;52.224;6.924;2023-06-22T03:46:04;18.90;99.90
43087;DHT22;28708;52.224;6.924;2023-06-22T03:48:29;19.00;99.90
43087;DHT22;28708;52.224;6.924;2023-06-22T03:50:55;19.00;99.90
43087;DHT22;28708;52.224;6.924;2023-06-22T03:53:21;19.10;99.90
43087;DHT22;28708;52.224;6.924;2023-06-22T03:55:50;19.10;99.90
43087;DHT22;28708;52.224;6.924;2023-06-22T03:58:17;19.00;99.90
43087;DHT22;28708;52.224;6.924;2023-06-22T04:00:45;19.10;99.90
43087;DHT22;28708;52.224;6.924;2023-06-22T04:03:11;19.10;99.90
43087;DHT22;28708;52.224;6.924;2023-06-22T04:05:38;19.00;99.90
43087;DHT22;28708;52.224;6.924;2023-06-22T04:08:05;19.00;99.90
43087;DHT22;28708;52.224;6.924;2023-06-22T04:10:30;19.00;99.90
43087;DHT22;28708;52.224;6.924;2023-06-22T04:12:56;19.10;99.90
43087;DHT22;28708;52.224;6.924;2023-06-22T04:15:22;19.00;99.90
43087;DHT22;28708;52.224;6.924;2023-06-22T04:17:47;19.00;99.90
43087;DHT22;28708;52.224;6.924;2023-06-22T04:20:13;19.10;99.90
43087;DHT22;28708;52.224;6.924;2023-06-22T04:22:39;19.10;99.90
43087;DHT22;28708;52.224;6.924;2023-06-22T04:25:06;19.10;99.90
43087;DHT22;28708;52.224;6.924;2023-06-22T04:27:33;19.20;99.90
43087;DHT22;28708;52.224;6.924;2023-06-22T04:30:06;19.20;99.90
43087;DHT22;28708;52.224;6.924;2023-06-22T04:32:32;19.20;99.90
43087;DHT22;28708;52.224;6.924;2023-06-22T04:34:58;19.30;99.90
43087;DHT22;28708;52.224;6.924;2023-06-22T04:37:26;19.30;99.90
43087;DHT22;28708;52.224;6.924;2023-06-22T04:39:51;19.30;99.90
43087;DHT22;28708;52.224;6.924;2023-06-22T04:42:17;19.20;99.90
43087;DHT22;28708;52.224;6.924;2023-06-22T04:44:43;19.20;99.90
43087;DHT22;28708;52.224;6.924;2023-06-22T04:47:09;19.20;99.90
43087;DHT22;28708;52.224;6.924;2023-06-22T04:49:35;19.20;99.90
43087;DHT22;28708;52.224;6.924;2023-06-22T04:52:09;19.10;99.90
43087;DHT22;28708;52.224;6.924;2023-06-22T04:54:36;19.10;99.90
43087;DHT22;28708;52.224;6.924;2023-06-22T04:57:04;19.10;99.90
43087;DHT22;28708;52.224;6.924;2023-06-22T04:59:31;19.10;99.90
43087;DHT22;28708;52.224;6.924;2023-06-22T05:01:58;19.10;99.90
43087;DHT22;28708;52.224;6.924;2023-06-22T05:04:24;19.10;99.90
43087;DHT22;28708;52.224;6.924;2023-06-22T05:06:53;19.20;99.90
43087;DHT22;28708;52.224;6.924;2023-06-22T05:09:20;19.20;99.90
43087;DHT22;28708;52.224;6.924;2023-06-22T05:11:46;19.20;99.90
43087;DHT22;28708;52.224;6.924;2023-06-22T05:14:12;19.20;99.90
43087;DHT22;28708;52.224;6.924;2023-06-22T05:16:38;19.30;99.90
43087;DHT22;28708;52.224;6.924;2023-06-22T05:19:04;19.20;99.90
43087;DHT22;28708;52.224;6.924;2023-06-22T05:21:30;19.30;99.90
43087;DHT22;28708;52.224;6.924;2023-06-22T05:23:56;19.40;99.90
43087;DHT22;28708;52.224;6.924;2023-06-22T05:26:27;19.40;99.90
43087;DHT22;28708;52.224;6.924;2023-06-22T05:28:53;19.50;99.90
43087;DHT22;28708;52.224;6.924;2023-06-22T05:31:19;19.50;99.90
43087;DHT22;28708;52.224;6.924;2023-06-22T05:33:46;19.50;99.90
43087;DHT22;28708;52.224;6.924;2023-06-22T05:36:12;19.50;99.90
43087;DHT22;28708;52.224;6.924;2023-06-22T05:38:39;19.50;99.90
43087;DHT22;28708;52.224;6.924;2023-06-22T05:41:05;19.50;99.90
43087;DHT22;28708;52.224;6.924;2023-06-22T05:43:31;19.70;99.90
43087;DHT22;28708;52.224;6.924;2023-06-22T05:45:57;19.60;99.90
43087;DHT22;28708;52.224;6.924;2023-06-22T05:48:23;19.70;99.90
43087;DHT22;28708;52.224;6.924;2023-06-22T05:50:49;19.90;99.90
43087;DHT22;28708;52.224;6.924;2023-06-22T05:53:15;19.90;99.90
43087;DHT22;28708;52.224;6.924;2023-06-22T05:55:41;19.90;99.90
43087;DHT22;28708;52.224;6.924;2023-06-22T05:58:08;19.90;99.90
43087;DHT22;28708;52.224;6.924;2023-06-22T06:00:34;19.90;99.90
43087;DHT22;28708;52.224;6.924;2023-06-22T06:03:00;20.00;99.90
43087;DHT22;28708;52.224;6.924;2023-06-22T06:05:33;20.10;99.90
43087;DHT22;28708;52.224;6.924;2023-06-22T06:08:00;20.20;99.90
43087;DHT22;28708;52.224;6.924;2023-06-22T06:10:26;20.40;99.90
43087;DHT22;28708;52.224;6.924;2023-06-22T06:12:52;20.50;99.90
43087;DHT22;28708;52.224;6.924;2023-06-22T06:15:17;20.60;99.90
43087;DHT22;28708;52.224;6.924;2023-06-22T06:17:49;20.60;99.90
43087;DHT22;28708;52.224;6.924;2023-06-22T06:20:17;20.60;99.90
43087;DHT22;28708;52.224;6.924;2023-06-22T06:22:43;20.60;99.90
43087;DHT22;28708;52.224;6.924;2023-06-22T06:25:09;20.70;99.90
43087;DHT22;28708;52.224;6.924;2023-06-22T06:27:35;20.70;99.90
43087;DHT22;28708;52.224;6.924;2023-06-22T06:30:01;20.70;99.90
43087;DHT22;28708;52.224;6.924;2023-06-22T06:32:27;20.70;99.90
43087;DHT22;28708;52.224;6.924;2023-06-22T06:34:53;20.80;99.90
43087;DHT22;28708;52.224;6.924;2023-06-22T06:37:18;20.90;99.90
43087;DHT22;28708;52.224;6.924;2023-06-22T06:39:44;21.00;99.90
43087;DHT22;28708;52.224;6.924;2023-06-22T06:42:10;21.10;99.90
43087;DHT22;28708;52.224;6.924;2023-06-22T06:44:37;21.20;99.90
43087;DHT22;28708;52.224;6.924;2023-06-22T06:47:04;21.20;99.90
43087;DHT22;28708;52.224;6.924;2023-06-22T06:49:30;21.30;99.90
43087;DHT22;28708;52.224;6.924;2023-06-22T06:51:55;21.20;99.90
43087;DHT22;28708;52.224;6.924;2023-06-22T06:54:21;21.20;99.90
43087;DHT22;28708;52.224;6.924;2023-06-22T06:56:47;21.30;99.90
43087;DHT22;28708;52.224;6.924;2023-06-22T06:59:14;21.40;99.90
43087;DHT22;28708;52.224;6.924;2023-06-22T07:01:41;21.50;99.90
43087;DHT22;28708;52.224;6.924;2023-06-22T07:04:07;21.50;99.90
43087;DHT22;28708;52.224;6.924;2023-06-22T07:06:33;21.50;99.90
43087;DHT22;28708;52.224;6.924;2023-06-22T07:08:59;21.60;99.90
43087;DHT22;28708;52.224;6.924;2023-06-22T07:11:25;21.80;99.90
43087;DHT22;28708;52.224;6.924;2023-06-22T07:13:51;22.00;99.90
43087;DHT22;28708;52.224;6.924;2023-06-22T07:16:16;22.10;99.90
43087;DHT22;28708;52.224;6.924;2023-06-22T07:18:42;22.10;99.90
43087;DHT22;28708;52.224;6.924;2023-06-22T07:21:08;22.30;99.90
43087;DHT22;28708;52.224;6.924;2023-06-22T07:23:34;22.60;99.90
43087;DHT22;28708;52.224;6.924;2023-06-22T07:26:00;22.60;99.90
43087;DHT22;28708;52.224;6.924;2023-06-22T07:28:28;22.70;99.90
43087;DHT22;28708;52.224;6.924;2023-06-22T07:30:57;22.80;99.90
43087;DHT22;28708;52.224;6.924;2023-06-22T07:33:22;23.00;99.90
43087;DHT22;28708;52.224;6.924;2023-06-22T07:35:48;23.20;99.90
43087;DHT22;28708;52.224;6.924;2023-06-22T07:38:16;23.20;99.90
43087;DHT22;28708;52.224;6.924;2023-06-22T07:40:42;23.30;99.90
43087;DHT22;28708;52.224;6.924;2023-06-22T07:43:07;23.20;99.90
43087;DHT22;28708;52.224;6.924;2023-06-22T07:45:33;23.20;99.90
43087;DHT22;28708;52.224;6.924;2023-06-22T07:48:01;23.10;99.90
43087;DHT22;28708;52.224;6.924;2023-06-22T07:50:26;23.10;99.90
43087;DHT22;28708;52.224;6.924;2023-06-22T07:52:52;23.20;99.90
43087;DHT22;28708;52.224;6.924;2023-06-22T07:55:18;23.30;99.90
43087;DHT22;28708;52.224;6.924;2023-06-22T07:57:44;23.50;99.90
43087;DHT22;28708;52.224;6.924;2023-06-22T08:00:10;23.70;99.90
43087;DHT22;28708;52.224;6.924;2023-06-22T08:02:41;23.60;99.90
43087;DHT22;28708;52.224;6.924;2023-06-22T08:05:08;23.50;99.90
43087;DHT22;28708;52.224;6.924;2023-06-22T08:07:37;23.50;99.90
43087;DHT22;28708;52.224;6.924;2023-06-22T08:10:10;23.60;99.90
43087;DHT22;28708;52.224;6.924;2023-06-22T08:12:36;23.70;99.90
43087;DHT22;28708;52.224;6.924;2023-06-22T08:15:02;23.60;99.90
43087;DHT22;28708;52.224;6.924;2023-06-22T08:17:28;23.60;99.90
43087;DHT22;28708;52.224;6.924;2023-06-22T08:19:54;23.60;99.90
43087;DHT22;28708;52.224;6.924;2023-06-22T08:22:19;23.70;99.90
43087;DHT22;28708;52.224;6.924;2023-06-22T08:24:45;23.90;99.90
43087;DHT22;28708;52.224;6.924;2023-06-22T08:27:11;23.90;99.90
43087;DHT22;28708;52.224;6.924;2023-06-22T08:29:46;23.90;99.90
43087;DHT22;28708;52.224;6.924;2023-06-22T08:32:12;23.90;99.90
43087;DHT22;28708;52.224;6.924;2023-06-22T08:34:38;23.80;99.90
43087;DHT22;28708;52.224;6.924;2023-06-22T08:37:08;23.70;99.90
43087;DHT22;28708;52.224;6.924;2023-06-22T08:39:33;23.70;99.90
43087;DHT22;28708;52.224;6.924;2023-06-22T08:41:59;23.70;99.90
43087;DHT22;28708;52.224;6.924;2023-06-22T08:44:25;23.60;99.90
43087;DHT22;28708;52.224;6.924;2023-06-22T08:46:51;23.60;99.90
43087;DHT22;28708;52.224;6.924;2023-06-22T08:49:16;23.70;99.90
43087;DHT22;28708;52.224;6.924;2023-06-22T08:51:42;23.80;99.90
43087;DHT22;28708;52.224;6.924;2023-06-22T08:54:09;23.70;99.90
43087;DHT22;28708;52.224;6.924;2023-06-22T08:56:35;23.80;99.90
43087;DHT22;28708;52.224;6.924;2023-06-22T08:59:01;23.80;99.90
43087;DHT22;28708;52.224;6.924;2023-06-22T09:01:27;24.10;99.90
43087;DHT22;28708;52.224;6.924;2023-06-22T09:03:53;24.30;99.90
43087;DHT22;28708;52.224;6.924;2023-06-22T09:06:24;24.50;99.90
43087;DHT22;28708;52.224;6.924;2023-06-22T09:08:50;24.80;99.90
43087;DHT22;28708;52.224;6.924;2023-06-22T09:11:16;25.30;99.90
43087;DHT22;28708;52.224;6.924;2023-06-22T09:13:41;25.90;99.90
43087;DHT22;28708;52.224;6.924;2023-06-22T09:16:07;26.30;99.90
43087;DHT22;28708;52.224;6.924;2023-06-22T09:18:36;26.70;99.90
43087;DHT22;28708;52.224;6.924;2023-06-22T09:21:02;26.60;99.90
43087;DHT22;28708;52.224;6.924;2023-06-22T09:23:27;26.20;99.90
43087;DHT22;28708;52.224;6.924;2023-06-22T09:25:53;26.00;99.90
43087;DHT22;28708;52.224;6.924;2023-06-22T09:28:19;25.70;99.90
43087;DHT22;28708;52.224;6.924;2023-06-22T09:30:45;25.50;99.90
43087;DHT22;28708;52.224;6.924;2023-06-22T09:33:11;25.50;99.90
43087;DHT22;28708;52.224;6.924;2023-06-22T09:35:37;25.40;99.90
43087;DHT22;28708;52.224;6.924;2023-06-22T09:38:02;25.40;99.90
43087;DHT22;28708;52.224;6.924;2023-06-22T09:40:28;25.20;99.90
43087;DHT22;28708;52.224;6.924;2023-06-22T09:42:54;25.20;99.90
43087;DHT22;28708;52.224;6.924;2023-06-22T09:45:19;25.00;99.90
43087;DHT22;28708;52.224;6.924;2023-06-22T09:47:45;25.10;99.90
43087;DHT22;28708;52.224;6.924;2023-06-22T09:50:11;25.00;99.90
43087;DHT22;28708;52.224;6.924;2023-06-22T09:52:37;24.90;99.90
43087;DHT22;28708;52.224;6.924;2023-06-22T09:55:03;24.90;99.90
43087;DHT22;28708;52.224;6.924;2023-06-22T09:57:29;24.80;99.90
43087;DHT22;28708;52.224;6.924;2023-06-22T09:59:55;24.80;99.90
43087;DHT22;28708;52.224;6.924;2023-06-22T10:02:21;24.70;99.90
43087;DHT22;28708;52.224;6.924;2023-06-22T10:04:48;24.80;99.90
43087;DHT22;28708;52.224;6.924;2023-06-22T10:07:13;24.80;99.90
43087;DHT22;28708;52.224;6.924;2023-06-22T10:09:39;24.90;99.90
43087;DHT22;28708;52.224;6.924;2023-06-22T10:12:05;24.90;99.90
43087;DHT22;28708;52.224;6.924;2023-06-22T10:14:31;25.00;99.90
43087;DHT22;28708;52.224;6.924;2023-06-22T10:16:56;25.00;99.90
43087;DHT22;28708;52.224;6.924;2023-06-22T10:19:22;25.10;99.90
43087;DHT22;28708;52.224;6.924;2023-06-22T10:21:48;24.90;99.90
43087;DHT22;28708;52.224;6.924;2023-06-22T10:24:13;24.90;99.90
43087;DHT22;28708;52.224;6.924;2023-06-22T10:26:39;24.90;99.90
43087;DHT22;28708;52.224;6.924;2023-06-22T10:29:05;24.90;99.90
43087;DHT22;28708;52.224;6.924;2023-06-22T10:31:30;24.90;99.90
43087;DHT22;28708;52.224;6.924;2023-06-22T10:33:56;24.80;99.90
43087;DHT22;28708;52.224;6.924;2023-06-22T10:36:22;24.70;99.90
43087;DHT22;28708;52.224;6.924;2023-06-22T10:38:48;24.70;99.90
43087;DHT22;28708;52.224;6.924;2023-06-22T10:41:14;24.70;99.90
43087;DHT22;28708;52.224;6.924;2023-06-22T10:43:40;24.80;99.90
43087;DHT22;28708;52.224;6.924;2023-06-22T10:46:06;24.60;99.90
43087;DHT22;28708;52.224;6.924;2023-06-22T10:48:32;24.60;99.90
43087;DHT22;28708;52.224;6.924;2023-06-22T10:50:58;24.50;99.90
43087;DHT22;28708;52.224;6.924;2023-06-22T10:53:23;24.50;99.90
43087;DHT22;28708;52.224;6.924;2023-06-22T10:55:49;24.60;99.90
43087;DHT22;28708;52.224;6.924;2023-06-22T10:58:15;24.70;99.90
43087;DHT22;28708;52.224;6.924;2023-06-22T11:00:40;24.80;99.90
43087;DHT22;28708;52.224;6.924;2023-06-22T11:03:06;24.70;99.90
43087;DHT22;28708;52.224;6.924;2023-06-22T11:05:32;24.60;99.90
43087;DHT22;28708;52.224;6.924;2023-06-22T11:07:58;24.60;99.90
43087;DHT22;28708;52.224;6.924;2023-06-22T11:10:24;24.50;99.90
43087;DHT22;28708;52.224;6.924;2023-06-22T11:12:49;24.60;99.90
43087;DHT22;28708;52.224;6.924;2023-06-22T11:15:15;24.50;99.90
43087;DHT22;28708;52.224;6.924;2023-06-22T11:17:41;24.40;99.90
43087;DHT22;28708;52.224;6.924;2023-06-22T11:20:07;24.40;99.90
43087;DHT22;28708;52.224;6.924;2023-06-22T11:22:40;24.40;99.90
43087;DHT22;28708;52.224;6.924;2023-06-22T11:25:06;24.50;99.90
43087;DHT22;28708;52.224;6.924;2023-06-22T11:27:32;24.40;99.90
43087;DHT22;28708;52.224;6.924;2023-06-22T11:29:58;24.40;99.90
43087;DHT22;28708;52.224;6.924;2023-06-22T11:32:24;24.40;99.90
43087;DHT22;28708;52.224;6.924;2023-06-22T11:34:50;24.50;99.90
43087;DHT22;28708;52.224;6.924;2023-06-22T11:37:15;24.50;99.90
43087;DHT22;28708;52.224;6.924;2023-06-22T11:39:42;24.50;99.90
43087;DHT22;28708;52.224;6.924;2023-06-22T11:42:08;24.40;99.90
43087;DHT22;28708;52.224;6.924;2023-06-22T11:44:34;24.40;99.90
43087;DHT22;28708;52.224;6.924;2023-06-22T11:47:00;24.40;99.90
43087;DHT22;28708;52.224;6.924;2023-06-22T11:49:29;24.40;99.90
43087;DHT22;28708;52.224;6.924;2023-06-22T11:51:55;24.30;99.90
43087;DHT22;28708;52.224;6.924;2023-06-22T11:54:20;24.30;99.90
43087;DHT22;28708;52.224;6.924;2023-06-22T11:56:46;24.30;99.90
43087;DHT22;28708;52.224;6.924;2023-06-22T11:59:12;24.30;99.90
43087;DHT22;28708;52.224;6.924;2023-06-22T12:01:39;24.20;99.90
43087;DHT22;28708;52.224;6.924;2023-06-22T12:04:04;24.20;99.90
43087;DHT22;28708;52.224;6.924;2023-06-22T12:06:38;24.20;99.90
43087;DHT22;28708;52.224;6.924;2023-06-22T12:09:04;24.10;99.90
43087;DHT22;28708;52.224;6.924;2023-06-22T12:11:32;24.00;99.90
43087;DHT22;28708;52.224;6.924;2023-06-22T12:13:58;23.90;99.90
43087;DHT22;28708;52.224;6.924;2023-06-22T12:16:28;23.90;99.90
43087;DHT22;28708;52.224;6.924;2023-06-22T12:18:53;23.80;99.90
43087;DHT22;28708;52.224;6.924;2023-06-22T12:21:19;23.80;99.90
43087;DHT22;28708;52.224;6.924;2023-06-22T12:23:45;23.80;99.90
43087;DHT22;28708;52.224;6.924;2023-06-22T12:26:10;23.80;99.90
43087;DHT22;28708;52.224;6.924;2023-06-22T12:28:36;23.80;99.90
43087;DHT22;28708;52.224;6.924;2023-06-22T12:31:02;23.80;99.90
43087;DHT22;28708;52.224;6.924;2023-06-22T12:33:30;23.90;99.90
43087;DHT22;28708;52.224;6.924;2023-06-22T12:35:57;23.70;99.90
43087;DHT22;28708;52.224;6.924;2023-06-22T12:38:22;23.70;99.90
43087;DHT22;28708;52.224;6.924;2023-06-22T12:40:51;23.60;99.90
43087;DHT22;28708;52.224;6.924;2023-06-22T12:43:17;23.60;99.90
43087;DHT22;28708;52.224;6.924;2023-06-22T12:45:42;23.60;99.90
43087;DHT22;28708;52.224;6.924;2023-06-22T12:48:08;23.50;99.90
43087;DHT22;28708;52.224;6.924;2023-06-22T12:50:34;23.50;99.90
43087;DHT22;28708;52.224;6.924;2023-06-22T12:53:00;23.40;99.90
43087;DHT22;28708;52.224;6.924;2023-06-22T12:55:27;23.30;99.90
43087;DHT22;28708;52.224;6.924;2023-06-22T12:57:53;23.20;99.90
43087;DHT22;28708;52.224;6.924;2023-06-22T13:00:21;23.10;99.90
43087;DHT22;28708;52.224;6.924;2023-06-22T13:02:47;23.10;99.90
43087;DHT22;28708;52.224;6.924;2023-06-22T13:05:13;23.10;99.90
43087;DHT22;28708;52.224;6.924;2023-06-22T13:07:38;23.00;99.90
43087;DHT22;28708;52.224;6.924;2023-06-22T13:10:04;22.90;99.90
43087;DHT22;28708;52.224;6.924;2023-06-22T13:12:30;22.80;99.90
43087;DHT22;28708;52.224;6.924;2023-06-22T13:14:56;22.70;99.90
43087;DHT22;28708;52.224;6.924;2023-06-22T13:17:21;22.60;99.90
43087;DHT22;28708;52.224;6.924;2023-06-22T13:19:47;22.40;99.90
43087;DHT22;28708;52.224;6.924;2023-06-22T13:22:33;22.40;99.90
43087;DHT22;28708;52.224;6.924;2023-06-22T13:25:05;22.20;99.90
43087;DHT22;28708;52.224;6.924;2023-06-22T13:27:31;22.10;99.90
43087;DHT22;28708;52.224;6.924;2023-06-22T13:29:57;22.10;99.90
43087;DHT22;28708;52.224;6.924;2023-06-22T13:32:23;21.90;99.90
43087;DHT22;28708;52.224;6.924;2023-06-22T13:34:49;21.80;99.90
43087;DHT22;28708;52.224;6.924;2023-06-22T13:37:15;21.70;99.90
43087;DHT22;28708;52.224;6.924;2023-06-22T13:39:41;21.60;99.90
43087;DHT22;28708;52.224;6.924;2023-06-22T13:42:07;21.50;99.90
43087;DHT22;28708;52.224;6.924;2023-06-22T13:44:32;21.40;99.90
43087;DHT22;28708;52.224;6.924;2023-06-22T13:46:58;21.40;99.90
43087;DHT22;28708;52.224;6.924;2023-06-22T13:49:24;21.40;99.90
43087;DHT22;28708;52.224;6.924;2023-06-22T13:51:50;21.40;99.90
43087;DHT22;28708;52.224;6.924;2023-06-22T13:54:16;21.30;99.90
43087;DHT22;28708;52.224;6.924;2023-06-22T13:56:42;21.40;99.90
43087;DHT22;28708;52.224;6.924;2023-06-22T13:59:07;21.40;99.90
43087;DHT22;28708;52.224;6.924;2023-06-22T14:01:35;21.40;99.90
43087;DHT22;28708;52.224;6.924;2023-06-22T14:04:01;21.40;99.90
43087;DHT22;28708;52.224;6.924;2023-06-22T14:06:30;21.50;99.90
43087;DHT22;28708;52.224;6.924;2023-06-22T14:08:55;21.50;99.90
43087;DHT22;28708;52.224;6.924;2023-06-22T14:11:21;21.50;99.90
43087;DHT22;28708;52.224;6.924;2023-06-22T14:13:47;21.70;99.90
43087;DHT22;28708;52.224;6.924;2023-06-22T14:16:13;21.80;99.90
43087;DHT22;28708;52.224;6.924;2023-06-22T14:18:38;21.90;99.90
43087;DHT22;28708;52.224;6.924;2023-06-22T14:21:04;22.10;99.90
43087;DHT22;28708;52.224;6.924;2023-06-22T14:23:30;22.40;99.90
43087;DHT22;28708;52.224;6.924;2023-06-22T14:25:56;22.40;99.90
43087;DHT22;28708;52.224;6.924;2023-06-22T14:28:21;22.50;99.90
43087;DHT22;28708;52.224;6.924;2023-06-22T14:30:47;22.50;99.90
43087;DHT22;28708;52.224;6.924;2023-06-22T14:33:13;22.70;99.90
43087;DHT22;28708;52.224;6.924;2023-06-22T14:35:39;22.70;99.90
43087;DHT22;28708;52.224;6.924;2023-06-22T14:38:04;23.00;99.90
43087;DHT22;28708;52.224;6.924;2023-06-22T14:40:30;22.90;99.90
43087;DHT22;28708;52.224;6.924;2023-06-22T14:42:56;22.70;99.90
43087;DHT22;28708;52.224;6.924;2023-06-22T14:45:23;22.50;99.90
43087;DHT22;28708;52.224;6.924;2023-06-22T14:47:49;22.30;99.90
43087;DHT22;28708;52.224;6.924;2023-06-22T14:50:14;22.20;99.90
43087;DHT22;28708;52.224;6.924;2023-06-22T14:52:40;22.20;99.90
43087;DHT22;28708;52.224;6.924;2023-06-22T14:55:06;22.20;99.90
43087;DHT22;28708;52.224;6.924;2023-06-22T14:57:32;22.50;99.90
43087;DHT22;28708;52.224;6.924;2023-06-22T14:59:57;22.50;99.90
43087;DHT22;28708;52.224;6.924;2023-06-22T15:02:23;22.60;99.90
43087;DHT22;28708;52.224;6.924;2023-06-22T15:04:49;22.60;99.90
43087;DHT22;28708;52.224;6.924;2023-06-22T15:07:15;22.50;99.90
43087;DHT22;28708;52.224;6.924;2023-06-22T15:09:40;22.50;99.90
43087;DHT22;28708;52.224;6.924;2023-06-22T15:12:08;22.30;99.90
43087;DHT22;28708;52.224;6.924;2023-06-22T15:14:40;22.30;99.90
43087;DHT22;28708;52.224;6.924;2023-06-22T15:17:09;22.20;99.90
43087;DHT22;28708;52.224;6.924;2023-06-22T15:19:36;22.10;99.90
43087;DHT22;28708;52.224;6.924;2023-06-22T15:22:06;22.20;99.90
43087;DHT22;28708;52.224;6.924;2023-06-22T15:24:32;22.30;99.90
43087;DHT22;28708;52.224;6.924;2023-06-22T15:26:58;22.30;99.90
43087;DHT22;28708;52.224;6.924;2023-06-22T15:29:23;22.20;99.90
43087;DHT22;28708;52.224;6.924;2023-06-22T15:31:49;22.10;99.90